sensor_id;sensor_type;location;lat;lon;timestamp;P1;durP1;ratioP1;P2;durP2;ratioP2
66585;SDS011;53444;45.822;16.092;2023-05-07T00:02:24;4.25;;;3.45;;
66585;SDS011;53444;45.822;16.092;2023-05-07T00:04:51;4.57;;;3.40;;
66585;SDS011;53444;45.822;16.092;2023-05-07T00:07:18;4.40;;;3.17;;
66585;SDS011;53444;45.822;16.092;2023-05-07T00:09:44;5.82;;;3.70;;
66585;SDS011;53444;45.822;16.092;2023-05-07T00:12:11;6.95;;;3.88;;
66585;SDS011;53444;45.822;16.092;2023-05-07T00:14:38;5.43;;;3.40;;
66585;SDS011;53444;45.822;16.092;2023-05-07T00:17:04;6.22;;;3.30;;
66585;SDS011;53444;45.822;16.092;2023-05-07T00:19:32;5.17;;;3.30;;
66585;SDS011;53444;45.822;16.092;2023-05-07T00:21:59;4.47;;;3.42;;
66585;SDS011;53444;45.822;16.092;2023-05-07T00:24:25;4.35;;;3.17;;
66585;SDS011;53444;45.822;16.092;2023-05-07T00:26:52;4.90;;;3.30;;
66585;SDS011;53444;45.822;16.092;2023-05-07T00:29:19;5.45;;;3.53;;
66585;SDS011;53444;45.822;16.092;2023-05-07T00:31:45;4.93;;;3.30;;
66585;SDS011;53444;45.822;16.092;2023-05-07T00:34:12;9.20;;;4.10;;
66585;SDS011;53444;45.822;16.092;2023-05-07T00:36:40;5.85;;;3.30;;
66585;SDS011;53444;45.822;16.092;2023-05-07T00:39:06;5.70;;;3.47;;
66585;SDS011;53444;45.822;16.092;2023-05-07T00:41:33;5.13;;;3.53;;
66585;SDS011;53444;45.822;16.092;2023-05-07T00:44:00;5.87;;;3.40;;
66585;SDS011;53444;45.822;16.092;2023-05-07T00:46:27;4.70;;;3.42;;
66585;SDS011;53444;45.822;16.092;2023-05-07T00:48:55;4.90;;;3.55;;
66585;SDS011;53444;45.822;16.092;2023-05-07T00:51:22;5.28;;;3.58;;
66585;SDS011;53444;45.822;16.092;2023-05-07T00:53:51;5.13;;;3.72;;
66585;SDS011;53444;45.822;16.092;2023-05-07T00:56:17;5.33;;;3.27;;
66585;SDS011;53444;45.822;16.092;2023-05-07T00:58:45;5.68;;;3.65;;
66585;SDS011;53444;45.822;16.092;2023-05-07T01:01:12;4.93;;;3.67;;
66585;SDS011;53444;45.822;16.092;2023-05-07T01:03:40;5.22;;;3.75;;
66585;SDS011;53444;45.822;16.092;2023-05-07T01:06:07;7.10;;;3.95;;
66585;SDS011;53444;45.822;16.092;2023-05-07T01:08:37;5.67;;;3.83;;
66585;SDS011;53444;45.822;16.092;2023-05-07T01:11:07;7.25;;;3.78;;
66585;SDS011;53444;45.822;16.092;2023-05-07T01:13:34;7.05;;;3.70;;
66585;SDS011;53444;45.822;16.092;2023-05-07T01:16:01;5.03;;;3.60;;
66585;SDS011;53444;45.822;16.092;2023-05-07T01:18:28;5.68;;;3.45;;
66585;SDS011;53444;45.822;16.092;2023-05-07T01:20:56;5.93;;;4.10;;
66585;SDS011;53444;45.822;16.092;2023-05-07T01:23:26;7.80;;;4.18;;
66585;SDS011;53444;45.822;16.092;2023-05-07T01:25:54;5.43;;;4.20;;
66585;SDS011;53444;45.822;16.092;2023-05-07T01:28:21;7.10;;;3.63;;
66585;SDS011;53444;45.822;16.092;2023-05-07T01:30:48;5.88;;;3.58;;
66585;SDS011;53444;45.822;16.092;2023-05-07T01:33:18;3.83;;;3.13;;
66585;SDS011;53444;45.822;16.092;2023-05-07T01:35:48;5.43;;;3.63;;
66585;SDS011;53444;45.822;16.092;2023-05-07T01:38:17;4.55;;;3.08;;
66585;SDS011;53444;45.822;16.092;2023-05-07T01:40:46;4.90;;;3.03;;
66585;SDS011;53444;45.822;16.092;2023-05-07T01:43:13;3.83;;;3.10;;
66585;SDS011;53444;45.822;16.092;2023-05-07T01:45:40;6.10;;;3.13;;
66585;SDS011;53444;45.822;16.092;2023-05-07T01:48:08;7.82;;;3.42;;
66585;SDS011;53444;45.822;16.092;2023-05-07T01:50:35;3.90;;;2.88;;
66585;SDS011;53444;45.822;16.092;2023-05-07T01:53:03;5.10;;;3.08;;
66585;SDS011;53444;45.822;16.092;2023-05-07T01:55:30;4.78;;;2.50;;
66585;SDS011;53444;45.822;16.092;2023-05-07T01:57:58;5.10;;;2.77;;
66585;SDS011;53444;45.822;16.092;2023-05-07T02:00:24;3.85;;;3.03;;
66585;SDS011;53444;45.822;16.092;2023-05-07T02:02:51;6.20;;;3.03;;
66585;SDS011;53444;45.822;16.092;2023-05-07T02:05:18;4.18;;;2.78;;
66585;SDS011;53444;45.822;16.092;2023-05-07T02:07:45;3.70;;;2.47;;
66585;SDS011;53444;45.822;16.092;2023-05-07T02:10:11;4.00;;;2.40;;
66585;SDS011;53444;45.822;16.092;2023-05-07T02:12:38;4.35;;;2.88;;
66585;SDS011;53444;45.822;16.092;2023-05-07T02:15:07;3.55;;;2.80;;
66585;SDS011;53444;45.822;16.092;2023-05-07T02:17:34;3.75;;;2.72;;
66585;SDS011;53444;45.822;16.092;2023-05-07T02:20:02;4.63;;;2.50;;
66585;SDS011;53444;45.822;16.092;2023-05-07T02:22:29;4.57;;;2.50;;
66585;SDS011;53444;45.822;16.092;2023-05-07T02:24:56;3.40;;;2.30;;
66585;SDS011;53444;45.822;16.092;2023-05-07T02:27:23;3.70;;;2.83;;
66585;SDS011;53444;45.822;16.092;2023-05-07T02:29:49;4.47;;;2.80;;
66585;SDS011;53444;45.822;16.092;2023-05-07T02:32:17;3.45;;;2.60;;
66585;SDS011;53444;45.822;16.092;2023-05-07T02:34:44;4.90;;;2.83;;
66585;SDS011;53444;45.822;16.092;2023-05-07T02:37:11;3.67;;;2.80;;
66585;SDS011;53444;45.822;16.092;2023-05-07T02:39:38;3.88;;;2.58;;
66585;SDS011;53444;45.822;16.092;2023-05-07T02:42:04;4.28;;;2.58;;
66585;SDS011;53444;45.822;16.092;2023-05-07T02:44:33;4.13;;;3.00;;
66585;SDS011;53444;45.822;16.092;2023-05-07T02:47:00;4.07;;;2.60;;
66585;SDS011;53444;45.822;16.092;2023-05-07T02:49:28;3.72;;;2.88;;
66585;SDS011;53444;45.822;16.092;2023-05-07T02:51:55;5.72;;;3.15;;
66585;SDS011;53444;45.822;16.092;2023-05-07T02:54:21;5.82;;;2.55;;
66585;SDS011;53444;45.822;16.092;2023-05-07T02:56:48;3.88;;;3.10;;
66585;SDS011;53444;45.822;16.092;2023-05-07T02:59:15;4.77;;;2.97;;
66585;SDS011;53444;45.822;16.092;2023-05-07T03:01:41;4.45;;;3.13;;
66585;SDS011;53444;45.822;16.092;2023-05-07T03:04:09;5.18;;;3.72;;
66585;SDS011;53444;45.822;16.092;2023-05-07T03:06:37;5.07;;;3.47;;
66585;SDS011;53444;45.822;16.092;2023-05-07T03:09:04;5.47;;;3.78;;
66585;SDS011;53444;45.822;16.092;2023-05-07T03:11:30;5.33;;;3.27;;
66585;SDS011;53444;45.822;16.092;2023-05-07T03:13:57;4.78;;;3.30;;
66585;SDS011;53444;45.822;16.092;2023-05-07T03:16:24;3.95;;;3.00;;
66585;SDS011;53444;45.822;16.092;2023-05-07T03:18:50;5.30;;;3.72;;
66585;SDS011;53444;45.822;16.092;2023-05-07T03:21:17;5.00;;;3.72;;
66585;SDS011;53444;45.822;16.092;2023-05-07T03:23:45;7.83;;;3.50;;
66585;SDS011;53444;45.822;16.092;2023-05-07T03:26:12;4.53;;;3.28;;
66585;SDS011;53444;45.822;16.092;2023-05-07T03:28:38;5.30;;;3.47;;
66585;SDS011;53444;45.822;16.092;2023-05-07T03:31:05;5.20;;;2.85;;
66585;SDS011;53444;45.822;16.092;2023-05-07T03:33:32;4.85;;;3.47;;
66585;SDS011;53444;45.822;16.092;2023-05-07T03:36:00;6.03;;;3.10;;
66585;SDS011;53444;45.822;16.092;2023-05-07T03:38:26;5.22;;;3.20;;
66585;SDS011;53444;45.822;16.092;2023-05-07T03:40:54;4.53;;;3.22;;
66585;SDS011;53444;45.822;16.092;2023-05-07T03:43:21;4.80;;;3.33;;
66585;SDS011;53444;45.822;16.092;2023-05-07T03:45:48;7.07;;;3.83;;
66585;SDS011;53444;45.822;16.092;2023-05-07T03:48:14;5.87;;;3.90;;
66585;SDS011;53444;45.822;16.092;2023-05-07T03:50:41;5.40;;;3.28;;
66585;SDS011;53444;45.822;16.092;2023-05-07T03:53:08;4.78;;;3.30;;
66585;SDS011;53444;45.822;16.092;2023-05-07T03:55:34;6.38;;;3.40;;
66585;SDS011;53444;45.822;16.092;2023-05-07T03:58:02;5.55;;;3.72;;
66585;SDS011;53444;45.822;16.092;2023-05-07T04:00:29;6.03;;;3.77;;
66585;SDS011;53444;45.822;16.092;2023-05-07T04:02:58;6.55;;;3.67;;
66585;SDS011;53444;45.822;16.092;2023-05-07T04:05:25;5.55;;;3.83;;
66585;SDS011;53444;45.822;16.092;2023-05-07T04:07:52;6.05;;;3.67;;
66585;SDS011;53444;45.822;16.092;2023-05-07T04:10:18;5.93;;;3.70;;
66585;SDS011;53444;45.822;16.092;2023-05-07T04:12:45;5.17;;;3.57;;
66585;SDS011;53444;45.822;16.092;2023-05-07T04:15:13;5.38;;;3.33;;
66585;SDS011;53444;45.822;16.092;2023-05-07T04:17:40;5.28;;;3.42;;
66585;SDS011;53444;45.822;16.092;2023-05-07T04:20:08;6.13;;;3.97;;
66585;SDS011;53444;45.822;16.092;2023-05-07T04:22:35;6.40;;;4.03;;
66585;SDS011;53444;45.822;16.092;2023-05-07T04:25:02;5.60;;;3.57;;
66585;SDS011;53444;45.822;16.092;2023-05-07T04:27:29;6.82;;;3.63;;
66585;SDS011;53444;45.822;16.092;2023-05-07T04:29:56;5.93;;;3.47;;
66585;SDS011;53444;45.822;16.092;2023-05-07T04:32:24;5.05;;;3.60;;
66585;SDS011;53444;45.822;16.092;2023-05-07T04:34:50;5.25;;;3.65;;
66585;SDS011;53444;45.822;16.092;2023-05-07T04:37:17;4.57;;;3.23;;
66585;SDS011;53444;45.822;16.092;2023-05-07T04:39:44;5.15;;;3.63;;
66585;SDS011;53444;45.822;16.092;2023-05-07T04:42:14;5.68;;;4.13;;
66585;SDS011;53444;45.822;16.092;2023-05-07T04:44:40;5.72;;;3.90;;
66585;SDS011;53444;45.822;16.092;2023-05-07T04:47:07;5.93;;;4.35;;
66585;SDS011;53444;45.822;16.092;2023-05-07T04:49:36;7.40;;;4.90;;
66585;SDS011;53444;45.822;16.092;2023-05-07T04:52:03;6.05;;;4.65;;
66585;SDS011;53444;45.822;16.092;2023-05-07T04:54:30;5.45;;;4.18;;
66585;SDS011;53444;45.822;16.092;2023-05-07T04:56:57;6.70;;;4.00;;
66585;SDS011;53444;45.822;16.092;2023-05-07T04:59:23;10.27;;;7.82;;
66585;SDS011;53444;45.822;16.092;2023-05-07T05:01:50;14.40;;;9.80;;
66585;SDS011;53444;45.822;16.092;2023-05-07T05:04:16;12.85;;;7.32;;
66585;SDS011;53444;45.822;16.092;2023-05-07T05:06:44;10.95;;;6.97;;
66585;SDS011;53444;45.822;16.092;2023-05-07T05:09:11;9.45;;;5.95;;
66585;SDS011;53444;45.822;16.092;2023-05-07T05:11:38;6.47;;;4.97;;
66585;SDS011;53444;45.822;16.092;2023-05-07T05:14:05;7.00;;;4.63;;
66585;SDS011;53444;45.822;16.092;2023-05-07T05:16:31;9.52;;;5.50;;
66585;SDS011;53444;45.822;16.092;2023-05-07T05:18:58;8.30;;;5.70;;
66585;SDS011;53444;45.822;16.092;2023-05-07T05:21:25;6.80;;;4.30;;
66585;SDS011;53444;45.822;16.092;2023-05-07T05:23:53;6.53;;;4.90;;
66585;SDS011;53444;45.822;16.092;2023-05-07T05:26:20;5.53;;;3.90;;
66585;SDS011;53444;45.822;16.092;2023-05-07T05:28:47;5.68;;;3.95;;
66585;SDS011;53444;45.822;16.092;2023-05-07T05:31:13;7.20;;;4.45;;
66585;SDS011;53444;45.822;16.092;2023-05-07T05:33:42;5.57;;;4.20;;
66585;SDS011;53444;45.822;16.092;2023-05-07T05:36:09;6.15;;;3.88;;
66585;SDS011;53444;45.822;16.092;2023-05-07T05:38:35;7.23;;;5.67;;
66585;SDS011;53444;45.822;16.092;2023-05-07T05:41:03;9.50;;;5.72;;
66585;SDS011;53444;45.822;16.092;2023-05-07T05:43:30;5.38;;;3.80;;
66585;SDS011;53444;45.822;16.092;2023-05-07T05:45:57;5.88;;;3.05;;
66585;SDS011;53444;45.822;16.092;2023-05-07T05:48:24;12.07;;;7.18;;
66585;SDS011;53444;45.822;16.092;2023-05-07T05:50:50;14.27;;;7.37;;
66585;SDS011;53444;45.822;16.092;2023-05-07T05:53:17;15.07;;;7.93;;
66585;SDS011;53444;45.822;16.092;2023-05-07T05:55:44;13.45;;;8.30;;
66585;SDS011;53444;45.822;16.092;2023-05-07T05:58:12;10.52;;;5.93;;
66585;SDS011;53444;45.822;16.092;2023-05-07T06:00:40;14.85;;;8.27;;
66585;SDS011;53444;45.822;16.092;2023-05-07T06:03:07;9.90;;;5.97;;
66585;SDS011;53444;45.822;16.092;2023-05-07T06:05:36;5.65;;;4.13;;
66585;SDS011;53444;45.822;16.092;2023-05-07T06:08:03;4.82;;;3.72;;
66585;SDS011;53444;45.822;16.092;2023-05-07T06:10:30;5.00;;;3.85;;
66585;SDS011;53444;45.822;16.092;2023-05-07T06:12:57;5.63;;;4.13;;
66585;SDS011;53444;45.822;16.092;2023-05-07T06:15:25;4.47;;;3.40;;
66585;SDS011;53444;45.822;16.092;2023-05-07T06:17:51;4.22;;;3.58;;
66585;SDS011;53444;45.822;16.092;2023-05-07T06:20:18;4.30;;;3.15;;
66585;SDS011;53444;45.822;16.092;2023-05-07T06:22:44;4.93;;;3.03;;
66585;SDS011;53444;45.822;16.092;2023-05-07T06:25:11;3.72;;;2.88;;
66585;SDS011;53444;45.822;16.092;2023-05-07T06:27:38;6.60;;;3.20;;
66585;SDS011;53444;45.822;16.092;2023-05-07T06:30:05;4.15;;;3.08;;
66585;SDS011;53444;45.822;16.092;2023-05-07T06:32:34;4.63;;;3.30;;
66585;SDS011;53444;45.822;16.092;2023-05-07T06:35:00;5.53;;;3.63;;
66585;SDS011;53444;45.822;16.092;2023-05-07T06:37:27;4.88;;;2.83;;
66585;SDS011;53444;45.822;16.092;2023-05-07T06:39:54;4.43;;;3.13;;
66585;SDS011;53444;45.822;16.092;2023-05-07T06:42:20;4.75;;;3.50;;
66585;SDS011;53444;45.822;16.092;2023-05-07T06:44:47;4.82;;;3.30;;
66585;SDS011;53444;45.822;16.092;2023-05-07T06:47:14;5.75;;;3.53;;
66585;SDS011;53444;45.822;16.092;2023-05-07T06:49:42;4.38;;;3.20;;
66585;SDS011;53444;45.822;16.092;2023-05-07T06:54:44;3.85;;;3.38;;
66585;SDS011;53444;45.822;16.092;2023-05-07T06:57:11;4.60;;;3.70;;
66585;SDS011;53444;45.822;16.092;2023-05-07T06:59:37;5.43;;;3.60;;
66585;SDS011;53444;45.822;16.092;2023-05-07T07:02:04;4.57;;;3.30;;
66585;SDS011;53444;45.822;16.092;2023-05-07T07:04:31;5.13;;;3.60;;
66585;SDS011;53444;45.822;16.092;2023-05-07T07:06:59;5.45;;;3.60;;
66585;SDS011;53444;45.822;16.092;2023-05-07T07:09:26;6.70;;;4.30;;
66585;SDS011;53444;45.822;16.092;2023-05-07T07:11:52;4.22;;;3.53;;
66585;SDS011;53444;45.822;16.092;2023-05-07T07:14:19;4.90;;;3.80;;
66585;SDS011;53444;45.822;16.092;2023-05-07T07:16:46;4.67;;;3.37;;
66585;SDS011;53444;45.822;16.092;2023-05-07T07:19:12;4.18;;;3.58;;
66585;SDS011;53444;45.822;16.092;2023-05-07T07:21:40;5.45;;;3.72;;
66585;SDS011;53444;45.822;16.092;2023-05-07T07:24:08;6.07;;;3.50;;
66585;SDS011;53444;45.822;16.092;2023-05-07T07:26:34;6.78;;;4.40;;
66585;SDS011;53444;45.822;16.092;2023-05-07T07:29:01;7.20;;;3.80;;
66585;SDS011;53444;45.822;16.092;2023-05-07T07:31:28;4.72;;;3.22;;
66585;SDS011;53444;45.822;16.092;2023-05-07T07:33:55;4.43;;;3.28;;
66585;SDS011;53444;45.822;16.092;2023-05-07T07:36:22;5.25;;;3.22;;
66585;SDS011;53444;45.822;16.092;2023-05-07T07:38:49;4.55;;;3.83;;
66585;SDS011;53444;45.822;16.092;2023-05-07T07:41:17;5.40;;;3.43;;
66585;SDS011;53444;45.822;16.092;2023-05-07T07:43:43;4.70;;;3.03;;
66585;SDS011;53444;45.822;16.092;2023-05-07T07:46:11;4.25;;;3.60;;
66585;SDS011;53444;45.822;16.092;2023-05-07T07:48:38;4.10;;;3.28;;
66585;SDS011;53444;45.822;16.092;2023-05-07T07:51:05;5.35;;;3.58;;
66585;SDS011;53444;45.822;16.092;2023-05-07T07:53:31;4.63;;;3.67;;
66585;SDS011;53444;45.822;16.092;2023-05-07T07:55:58;4.70;;;3.50;;
66585;SDS011;53444;45.822;16.092;2023-05-07T07:58:26;5.13;;;3.38;;
66585;SDS011;53444;45.822;16.092;2023-05-07T08:00:53;4.53;;;3.35;;
66585;SDS011;53444;45.822;16.092;2023-05-07T08:03:20;4.57;;;3.70;;
66585;SDS011;53444;45.822;16.092;2023-05-07T08:05:47;4.33;;;3.20;;
66585;SDS011;53444;45.822;16.092;2023-05-07T08:08:16;3.83;;;3.08;;
66585;SDS011;53444;45.822;16.092;2023-05-07T08:10:42;3.95;;;3.53;;
66585;SDS011;53444;45.822;16.092;2023-05-07T08:13:09;4.82;;;2.90;;
66585;SDS011;53444;45.822;16.092;2023-05-07T08:15:37;5.13;;;3.05;;
66585;SDS011;53444;45.822;16.092;2023-05-07T08:18:04;3.60;;;3.00;;
66585;SDS011;53444;45.822;16.092;2023-05-07T08:20:31;3.08;;;2.70;;
66585;SDS011;53444;45.822;16.092;2023-05-07T08:22:58;4.78;;;3.75;;
66585;SDS011;53444;45.822;16.092;2023-05-07T08:25:25;3.40;;;2.83;;
66585;SDS011;53444;45.822;16.092;2023-05-07T08:27:51;4.55;;;3.60;;
66585;SDS011;53444;45.822;16.092;2023-05-07T08:30:18;4.53;;;3.50;;
66585;SDS011;53444;45.822;16.092;2023-05-07T08:32:46;3.42;;;3.10;;
66585;SDS011;53444;45.822;16.092;2023-05-07T08:35:13;3.97;;;3.53;;
66585;SDS011;53444;45.822;16.092;2023-05-07T08:37:39;3.70;;;3.00;;
66585;SDS011;53444;45.822;16.092;2023-05-07T08:40:06;3.50;;;2.85;;
66585;SDS011;53444;45.822;16.092;2023-05-07T08:42:35;3.90;;;3.13;;
66585;SDS011;53444;45.822;16.092;2023-05-07T08:45:03;3.80;;;3.13;;
66585;SDS011;53444;45.822;16.092;2023-05-07T08:47:34;3.45;;;2.90;;
66585;SDS011;53444;45.822;16.092;2023-05-07T08:50:07;4.07;;;2.88;;
66585;SDS011;53444;45.822;16.092;2023-05-07T08:52:35;4.57;;;3.38;;
66585;SDS011;53444;45.822;16.092;2023-05-07T08:55:02;5.30;;;2.73;;
66585;SDS011;53444;45.822;16.092;2023-05-07T08:57:29;5.07;;;2.90;;
66585;SDS011;53444;45.822;16.092;2023-05-07T08:59:55;5.32;;;3.55;;
66585;SDS011;53444;45.822;16.092;2023-05-07T09:02:22;6.68;;;3.03;;
66585;SDS011;53444;45.822;16.092;2023-05-07T09:04:49;3.63;;;3.30;;
66585;SDS011;53444;45.822;16.092;2023-05-07T09:07:17;3.57;;;3.07;;
66585;SDS011;53444;45.822;16.092;2023-05-07T09:09:45;5.10;;;3.40;;
66585;SDS011;53444;45.822;16.092;2023-05-07T09:12:12;6.13;;;3.60;;
66585;SDS011;53444;45.822;16.092;2023-05-07T09:14:39;3.65;;;3.25;;
66585;SDS011;53444;45.822;16.092;2023-05-07T09:17:05;4.00;;;2.92;;
66585;SDS011;53444;45.822;16.092;2023-05-07T09:19:32;3.40;;;2.83;;
66585;SDS011;53444;45.822;16.092;2023-05-07T09:21:59;3.22;;;2.92;;
66585;SDS011;53444;45.822;16.092;2023-05-07T09:24:28;4.60;;;3.90;;
66585;SDS011;53444;45.822;16.092;2023-05-07T09:26:58;3.55;;;3.03;;
66585;SDS011;53444;45.822;16.092;2023-05-07T09:29:26;3.78;;;3.22;;
66585;SDS011;53444;45.822;16.092;2023-05-07T09:31:53;3.60;;;3.30;;
66585;SDS011;53444;45.822;16.092;2023-05-07T09:34:20;3.60;;;2.65;;
66585;SDS011;53444;45.822;16.092;2023-05-07T09:36:47;4.22;;;2.78;;
66585;SDS011;53444;45.822;16.092;2023-05-07T09:39:14;3.85;;;3.45;;
66585;SDS011;53444;45.822;16.092;2023-05-07T09:41:45;3.75;;;3.15;;
66585;SDS011;53444;45.822;16.092;2023-05-07T09:44:16;4.83;;;3.27;;
66585;SDS011;53444;45.822;16.092;2023-05-07T09:46:44;3.28;;;2.92;;
66585;SDS011;53444;45.822;16.092;2023-05-07T09:49:18;4.03;;;3.15;;
66585;SDS011;53444;45.822;16.092;2023-05-07T09:51:48;3.83;;;3.15;;
66585;SDS011;53444;45.822;16.092;2023-05-07T09:54:15;4.20;;;3.70;;
66585;SDS011;53444;45.822;16.092;2023-05-07T09:56:43;3.53;;;3.23;;
66585;SDS011;53444;45.822;16.092;2023-05-07T09:59:12;4.07;;;3.42;;
66585;SDS011;53444;45.822;16.092;2023-05-07T10:01:40;4.22;;;3.40;;
66585;SDS011;53444;45.822;16.092;2023-05-07T10:04:08;3.35;;;2.88;;
66585;SDS011;53444;45.822;16.092;2023-05-07T10:06:36;4.53;;;2.97;;
66585;SDS011;53444;45.822;16.092;2023-05-07T10:09:04;3.50;;;2.93;;
66585;SDS011;53444;45.822;16.092;2023-05-07T10:11:31;4.25;;;3.10;;
66585;SDS011;53444;45.822;16.092;2023-05-07T10:14:00;3.85;;;3.35;;
66585;SDS011;53444;45.822;16.092;2023-05-07T10:16:27;4.13;;;3.42;;
66585;SDS011;53444;45.822;16.092;2023-05-07T10:18:55;4.53;;;3.28;;
66585;SDS011;53444;45.822;16.092;2023-05-07T10:21:23;5.93;;;3.83;;
66585;SDS011;53444;45.822;16.092;2023-05-07T10:23:53;5.28;;;3.67;;
66585;SDS011;53444;45.822;16.092;2023-05-07T10:26:24;4.50;;;3.63;;
66585;SDS011;53444;45.822;16.092;2023-05-07T10:28:55;3.58;;;3.28;;
66585;SDS011;53444;45.822;16.092;2023-05-07T10:34:21;5.00;;;3.67;;
66585;SDS011;53444;45.822;16.092;2023-05-07T10:36:50;6.97;;;4.60;;
66585;SDS011;53444;45.822;16.092;2023-05-07T10:39:19;3.88;;;3.47;;
66585;SDS011;53444;45.822;16.092;2023-05-07T10:41:46;4.25;;;3.80;;
66585;SDS011;53444;45.822;16.092;2023-05-07T10:44:24;3.85;;;3.45;;
66585;SDS011;53444;45.822;16.092;2023-05-07T10:47:04;3.63;;;3.20;;
66585;SDS011;53444;45.822;16.092;2023-05-07T10:49:34;4.05;;;3.42;;
66585;SDS011;53444;45.822;16.092;2023-05-07T10:52:13;4.22;;;3.22;;
66585;SDS011;53444;45.822;16.092;2023-05-07T10:54:41;3.88;;;3.42;;
66585;SDS011;53444;45.822;16.092;2023-05-07T10:59:58;3.73;;;3.13;;
66585;SDS011;53444;45.822;16.092;2023-05-07T11:02:35;3.75;;;3.40;;
66585;SDS011;53444;45.822;16.092;2023-05-07T11:05:32;3.67;;;3.13;;
66585;SDS011;53444;45.822;16.092;2023-05-07T11:08:00;5.47;;;3.83;;
66585;SDS011;53444;45.822;16.092;2023-05-07T11:13:16;4.17;;;3.77;;
66585;SDS011;53444;45.822;16.092;2023-05-07T11:15:44;4.13;;;3.60;;
66585;SDS011;53444;45.822;16.092;2023-05-07T11:18:13;4.93;;;3.75;;
66585;SDS011;53444;45.822;16.092;2023-05-07T11:20:44;4.35;;;3.47;;
66585;SDS011;53444;45.822;16.092;2023-05-07T11:26:43;4.67;;;3.87;;
66585;SDS011;53444;45.822;16.092;2023-05-07T11:29:12;5.03;;;3.45;;
66585;SDS011;53444;45.822;16.092;2023-05-07T11:31:39;4.03;;;3.58;;
66585;SDS011;53444;45.822;16.092;2023-05-07T11:34:07;4.25;;;3.58;;
66585;SDS011;53444;45.822;16.092;2023-05-07T11:36:35;4.63;;;3.85;;
66585;SDS011;53444;45.822;16.092;2023-05-07T11:39:02;4.67;;;4.07;;
66585;SDS011;53444;45.822;16.092;2023-05-07T11:41:34;4.22;;;3.83;;
66585;SDS011;53444;45.822;16.092;2023-05-07T11:44:02;4.63;;;4.05;;
66585;SDS011;53444;45.822;16.092;2023-05-07T11:46:29;4.13;;;3.63;;
66585;SDS011;53444;45.822;16.092;2023-05-07T11:48:56;4.15;;;3.75;;
66585;SDS011;53444;45.822;16.092;2023-05-07T11:51:25;3.63;;;3.33;;
66585;SDS011;53444;45.822;16.092;2023-05-07T11:53:54;4.20;;;3.80;;
66585;SDS011;53444;45.822;16.092;2023-05-07T11:56:21;4.70;;;3.95;;
66585;SDS011;53444;45.822;16.092;2023-05-07T11:58:48;3.78;;;3.45;;
66585;SDS011;53444;45.822;16.092;2023-05-07T12:01:16;5.15;;;4.28;;
66585;SDS011;53444;45.822;16.092;2023-05-07T12:03:44;4.57;;;4.13;;
66585;SDS011;53444;45.822;16.092;2023-05-07T12:06:12;4.18;;;3.53;;
66585;SDS011;53444;45.822;16.092;2023-05-07T12:08:41;4.47;;;4.05;;
66585;SDS011;53444;45.822;16.092;2023-05-07T12:11:09;4.85;;;4.30;;
66585;SDS011;53444;45.822;16.092;2023-05-07T12:13:38;5.03;;;4.38;;
66585;SDS011;53444;45.822;16.092;2023-05-07T12:16:05;4.47;;;4.07;;
66585;SDS011;53444;45.822;16.092;2023-05-07T12:18:36;4.05;;;3.67;;
66585;SDS011;53444;45.822;16.092;2023-05-07T12:21:04;5.07;;;3.53;;
66585;SDS011;53444;45.822;16.092;2023-05-07T12:23:32;3.63;;;3.33;;
66585;SDS011;53444;45.822;16.092;2023-05-07T12:26:01;4.10;;;3.63;;
66585;SDS011;53444;45.822;16.092;2023-05-07T12:28:29;4.80;;;3.47;;
66585;SDS011;53444;45.822;16.092;2023-05-07T12:30:56;4.20;;;3.80;;
66585;SDS011;53444;45.822;16.092;2023-05-07T12:33:24;4.72;;;4.25;;
66585;SDS011;53444;45.822;16.092;2023-05-07T12:35:54;4.07;;;3.65;;
66585;SDS011;53444;45.822;16.092;2023-05-07T12:38:22;4.57;;;4.18;;
66585;SDS011;53444;45.822;16.092;2023-05-07T12:40:49;4.20;;;3.80;;
66585;SDS011;53444;45.822;16.092;2023-05-07T12:43:19;4.35;;;3.95;;
66585;SDS011;53444;45.822;16.092;2023-05-07T12:45:46;4.72;;;3.63;;
66585;SDS011;53444;45.822;16.092;2023-05-07T12:48:14;4.32;;;3.92;;
66585;SDS011;53444;45.822;16.092;2023-05-07T12:50:40;4.80;;;4.40;;
66585;SDS011;53444;45.822;16.092;2023-05-07T12:53:08;4.37;;;3.97;;
66585;SDS011;53444;45.822;16.092;2023-05-07T12:55:42;3.70;;;3.40;;
66585;SDS011;53444;45.822;16.092;2023-05-07T12:58:17;4.70;;;4.25;;
66585;SDS011;53444;45.822;16.092;2023-05-07T13:00:47;4.38;;;3.97;;
66585;SDS011;53444;45.822;16.092;2023-05-07T13:03:21;4.43;;;4.03;;
66585;SDS011;53444;45.822;16.092;2023-05-07T13:05:50;4.47;;;4.07;;
66585;SDS011;53444;45.822;16.092;2023-05-07T13:08:23;4.40;;;3.78;;
66585;SDS011;53444;45.822;16.092;2023-05-07T13:10:51;3.97;;;3.67;;
66585;SDS011;53444;45.822;16.092;2023-05-07T13:13:20;4.00;;;3.63;;
66585;SDS011;53444;45.822;16.092;2023-05-07T13:15:46;4.40;;;4.00;;
66585;SDS011;53444;45.822;16.092;2023-05-07T13:18:13;4.70;;;4.30;;
66585;SDS011;53444;45.822;16.092;2023-05-07T13:20:40;4.07;;;3.78;;
66585;SDS011;53444;45.822;16.092;2023-05-07T13:23:07;4.90;;;3.63;;
66585;SDS011;53444;45.822;16.092;2023-05-07T13:25:33;4.13;;;3.80;;
66585;SDS011;53444;45.822;16.092;2023-05-07T13:28:00;4.40;;;4.00;;
66585;SDS011;53444;45.822;16.092;2023-05-07T13:30:29;5.07;;;3.77;;
66585;SDS011;53444;45.822;16.092;2023-05-07T13:32:55;3.83;;;3.50;;
66585;SDS011;53444;45.822;16.092;2023-05-07T13:35:22;4.25;;;3.80;;
66585;SDS011;53444;45.822;16.092;2023-05-07T13:37:49;4.68;;;4.28;;
66585;SDS011;53444;45.822;16.092;2023-05-07T13:40:17;3.85;;;3.45;;
66585;SDS011;53444;45.822;16.092;2023-05-07T13:42:44;3.80;;;3.37;;
66585;SDS011;53444;45.822;16.092;2023-05-07T13:45:10;4.03;;;3.72;;
66585;SDS011;53444;45.822;16.092;2023-05-07T13:47:40;3.90;;;3.60;;
66585;SDS011;53444;45.822;16.092;2023-05-07T13:50:07;5.40;;;4.45;;
66585;SDS011;53444;45.822;16.092;2023-05-07T13:52:35;5.32;;;4.82;;
66585;SDS011;53444;45.822;16.092;2023-05-07T13:55:01;4.80;;;4.23;;
66585;SDS011;53444;45.822;16.092;2023-05-07T13:57:28;4.97;;;4.45;;
66585;SDS011;53444;45.822;16.092;2023-05-07T13:59:55;4.55;;;4.15;;
66585;SDS011;53444;45.822;16.092;2023-05-07T14:05:08;4.78;;;3.90;;
66585;SDS011;53444;45.822;16.092;2023-05-07T14:07:35;3.93;;;3.47;;
66585;SDS011;53444;45.822;16.092;2023-05-07T14:10:43;4.00;;;3.60;;
66585;SDS011;53444;45.822;16.092;2023-05-07T14:12:56;4.43;;;4.03;;
66585;SDS011;53444;45.822;16.092;2023-05-07T14:15:23;4.55;;;4.13;;
66585;SDS011;53444;45.822;16.092;2023-05-07T14:17:51;5.00;;;3.88;;
66585;SDS011;53444;45.822;16.092;2023-05-07T14:20:18;4.57;;;4.10;;
66585;SDS011;53444;45.822;16.092;2023-05-07T14:22:44;4.15;;;3.85;;
66585;SDS011;53444;45.822;16.092;2023-05-07T14:25:11;4.43;;;4.03;;
66585;SDS011;53444;45.822;16.092;2023-05-07T14:27:38;4.18;;;3.75;;
66585;SDS011;53444;45.822;16.092;2023-05-07T14:30:05;4.80;;;4.35;;
66585;SDS011;53444;45.822;16.092;2023-05-07T14:32:33;4.53;;;4.00;;
66585;SDS011;53444;45.822;16.092;2023-05-07T14:35:01;3.83;;;3.42;;
66585;SDS011;53444;45.822;16.092;2023-05-07T14:37:28;4.30;;;3.90;;
66585;SDS011;53444;45.822;16.092;2023-05-07T14:40:21;4.50;;;4.10;;
66585;SDS011;53444;45.822;16.092;2023-05-07T14:42:48;5.20;;;4.10;;
66585;SDS011;53444;45.822;16.092;2023-05-07T14:45:15;4.30;;;3.53;;
66585;SDS011;53444;45.822;16.092;2023-05-07T14:47:42;4.72;;;4.25;;
66585;SDS011;53444;45.822;16.092;2023-05-07T14:50:10;4.55;;;4.10;;
66585;SDS011;53444;45.822;16.092;2023-05-07T14:52:36;4.35;;;3.67;;
66585;SDS011;53444;45.822;16.092;2023-05-07T14:55:03;5.10;;;3.75;;